sensor_id;sensor_type;location;lat;lon;timestamp;temperature;humidity
10123;DHT22;5101;49.038;8.710;2023-12-04T00:01:31;-1.50;99.90
10123;DHT22;5101;49.038;8.710;2023-12-04T00:03:57;-1.60;99.90
10123;DHT22;5101;49.038;8.710;2023-12-04T00:06:23;-1.60;99.90
10123;DHT22;5101;49.038;8.710;2023-12-04T00:08:49;-1.50;99.90
10123;DHT22;5101;49.038;8.710;2023-12-04T00:11:14;-1.50;99.90
10123;DHT22;5101;49.038;8.710;2023-12-04T00:13:40;-1.50;99.90
10123;DHT22;5101;49.038;8.710;2023-12-04T00:16:06;-1.50;99.90
10123;DHT22;5101;49.038;8.710;2023-12-04T00:18:32;-1.60;99.90
10123;DHT22;5101;49.038;8.710;2023-12-04T00:20:57;-1.60;99.90
10123;DHT22;5101;49.038;8.710;2023-12-04T00:23:23;-1.60;99.90
10123;DHT22;5101;49.038;8.710;2023-12-04T00:25:48;-1.60;99.90
10123;DHT22;5101;49.038;8.710;2023-12-04T00:28:14;-1.60;99.90
10123;DHT22;5101;49.038;8.710;2023-12-04T00:30:39;-1.60;99.90
10123;DHT22;5101;49.038;8.710;2023-12-04T00:33:05;-1.60;99.90
10123;DHT22;5101;49.038;8.710;2023-12-04T00:35:30;-1.60;99.90
10123;DHT22;5101;49.038;8.710;2023-12-04T00:37:56;-1.70;99.90
10123;DHT22;5101;49.038;8.710;2023-12-04T00:40:21;-1.60;99.90
10123;DHT22;5101;49.038;8.710;2023-12-04T00:42:47;-1.60;99.90
10123;DHT22;5101;49.038;8.710;2023-12-04T00:45:12;-1.60;99.90
10123;DHT22;5101;49.038;8.710;2023-12-04T00:47:38;-1.60;99.90
10123;DHT22;5101;49.038;8.710;2023-12-04T00:50:04;-1.60;99.90
10123;DHT22;5101;49.038;8.710;2023-12-04T00:52:29;-1.50;99.90
10123;DHT22;5101;49.038;8.710;2023-12-04T00:54:55;-1.60;99.90
10123;DHT22;5101;49.038;8.710;2023-12-04T00:57:21;-1.60;99.90
10123;DHT22;5101;49.038;8.710;2023-12-04T00:59:46;-1.60;99.90
10123;DHT22;5101;49.038;8.710;2023-12-04T01:02:12;-1.60;99.90
10123;DHT22;5101;49.038;8.710;2023-12-04T01:04:40;-1.60;99.90
10123;DHT22;5101;49.038;8.710;2023-12-04T01:07:06;-1.60;99.90
10123;DHT22;5101;49.038;8.710;2023-12-04T01:09:35;-1.60;99.90
10123;DHT22;5101;49.038;8.710;2023-12-04T01:12:01;-1.60;99.90
10123;DHT22;5101;49.038;8.710;2023-12-04T01:14:26;-1.60;99.90
10123;DHT22;5101;49.038;8.710;2023-12-04T01:16:52;-1.50;99.90
10123;DHT22;5101;49.038;8.710;2023-12-04T01:19:18;-1.50;99.90
10123;DHT22;5101;49.038;8.710;2023-12-04T01:21:43;-1.50;99.90
10123;DHT22;5101;49.038;8.710;2023-12-04T01:24:09;-1.50;99.90
10123;DHT22;5101;49.038;8.710;2023-12-04T01:26:34;-1.50;99.90
10123;DHT22;5101;49.038;8.710;2023-12-04T01:29:00;-1.60;99.90
10123;DHT22;5101;49.038;8.710;2023-12-04T01:31:25;-1.60;99.90
10123;DHT22;5101;49.038;8.710;2023-12-04T01:33:51;-1.60;99.90
10123;DHT22;5101;49.038;8.710;2023-12-04T01:36:16;-1.60;99.90
10123;DHT22;5101;49.038;8.710;2023-12-04T01:38:41;-1.60;99.90
10123;DHT22;5101;49.038;8.710;2023-12-04T01:41:07;-1.60;99.90
10123;DHT22;5101;49.038;8.710;2023-12-04T01:43:33;-1.50;99.90
10123;DHT22;5101;49.038;8.710;2023-12-04T01:45:59;-1.50;99.90
10123;DHT22;5101;49.038;8.710;2023-12-04T01:48:26;-1.50;99.90
10123;DHT22;5101;49.038;8.710;2023-12-04T01:50:52;-1.50;99.90
10123;DHT22;5101;49.038;8.710;2023-12-04T01:53:18;-1.50;99.90
10123;DHT22;5101;49.038;8.710;2023-12-04T01:55:44;-1.50;99.90
10123;DHT22;5101;49.038;8.710;2023-12-04T01:58:10;-1.50;99.90
10123;DHT22;5101;49.038;8.710;2023-12-04T02:00:36;-1.40;99.90
10123;DHT22;5101;49.038;8.710;2023-12-04T02:03:02;-1.40;99.90
10123;DHT22;5101;49.038;8.710;2023-12-04T02:05:28;-1.40;99.80
10123;DHT22;5101;49.038;8.710;2023-12-04T02:07:54;-1.40;99.80
10123;DHT22;5101;49.038;8.710;2023-12-04T02:10:21;-1.30;99.80
10123;DHT22;5101;49.038;8.710;2023-12-04T02:12:47;-1.30;99.70
10123;DHT22;5101;49.038;8.710;2023-12-04T02:15:13;-1.30;99.60
10123;DHT22;5101;49.038;8.710;2023-12-04T02:17:39;-1.10;99.60
10123;DHT22;5101;49.038;8.710;2023-12-04T02:20:05;-1.30;99.50
10123;DHT22;5101;49.038;8.710;2023-12-04T02:22:31;-1.30;99.40
10123;DHT22;5101;49.038;8.710;2023-12-04T02:24:56;-1.30;99.40
10123;DHT22;5101;49.038;8.710;2023-12-04T02:27:44;-1.30;99.30
10123;DHT22;5101;49.038;8.710;2023-12-04T02:30:12;-1.20;99.30
10123;DHT22;5101;49.038;8.710;2023-12-04T02:32:47;-1.30;99.10
10123;DHT22;5101;49.038;8.710;2023-12-04T02:35:15;-1.20;99.10
10123;DHT22;5101;49.038;8.710;2023-12-04T02:37:42;-1.20;99.00
10123;DHT22;5101;49.038;8.710;2023-12-04T02:40:08;-1.20;98.90
10123;DHT22;5101;49.038;8.710;2023-12-04T02:42:34;-1.20;98.80
10123;DHT22;5101;49.038;8.710;2023-12-04T02:44:59;-1.20;98.70
10123;DHT22;5101;49.038;8.710;2023-12-04T02:47:25;-1.20;98.60
10123;DHT22;5101;49.038;8.710;2023-12-04T02:49:50;-1.10;98.60
10123;DHT22;5101;49.038;8.710;2023-12-04T02:52:16;-1.10;98.50
10123;DHT22;5101;49.038;8.710;2023-12-04T02:54:42;-1.10;98.50
10123;DHT22;5101;49.038;8.710;2023-12-04T02:57:07;-1.10;98.50
10123;DHT22;5101;49.038;8.710;2023-12-04T02:59:33;-1.00;98.40
10123;DHT22;5101;49.038;8.710;2023-12-04T03:01:58;-1.00;98.30
10123;DHT22;5101;49.038;8.710;2023-12-04T03:04:24;-1.00;98.20
10123;DHT22;5101;49.038;8.710;2023-12-04T03:06:49;-1.00;98.10
10123;DHT22;5101;49.038;8.710;2023-12-04T03:09:15;-1.00;98.00
10123;DHT22;5101;49.038;8.710;2023-12-04T03:11:41;-1.00;97.90
10123;DHT22;5101;49.038;8.710;2023-12-04T03:14:06;-1.00;97.80
10123;DHT22;5101;49.038;8.710;2023-12-04T03:16:32;-1.00;97.70
10123;DHT22;5101;49.038;8.710;2023-12-04T03:18:58;-1.00;97.70
10123;DHT22;5101;49.038;8.710;2023-12-04T03:21:23;-1.00;97.60
10123;DHT22;5101;49.038;8.710;2023-12-04T03:23:49;-1.00;97.50
10123;DHT22;5101;49.038;8.710;2023-12-04T03:26:14;-1.00;97.40
10123;DHT22;5101;49.038;8.710;2023-12-04T03:28:40;-1.00;97.40
10123;DHT22;5101;49.038;8.710;2023-12-04T03:31:06;-0.90;97.40
10123;DHT22;5101;49.038;8.710;2023-12-04T03:33:31;-0.90;97.30
10123;DHT22;5101;49.038;8.710;2023-12-04T03:35:58;-1.00;97.20
10123;DHT22;5101;49.038;8.710;2023-12-04T03:38:24;-1.00;97.20
10123;DHT22;5101;49.038;8.710;2023-12-04T03:40:49;-1.00;97.10
10123;DHT22;5101;49.038;8.710;2023-12-04T03:43:15;-0.90;97.10
10123;DHT22;5101;49.038;8.710;2023-12-04T03:45:40;-0.90;97.10
10123;DHT22;5101;49.038;8.710;2023-12-04T03:48:06;-0.90;97.00
10123;DHT22;5101;49.038;8.710;2023-12-04T03:50:31;-0.90;96.90
10123;DHT22;5101;49.038;8.710;2023-12-04T03:52:57;-0.90;96.90
10123;DHT22;5101;49.038;8.710;2023-12-04T03:55:22;-0.90;96.80
10123;DHT22;5101;49.038;8.710;2023-12-04T03:57:48;-0.90;96.80
10123;DHT22;5101;49.038;8.710;2023-12-04T04:00:13;-0.90;96.70
10123;DHT22;5101;49.038;8.710;2023-12-04T04:02:39;-0.80;96.70
10123;DHT22;5101;49.038;8.710;2023-12-04T04:05:06;-0.80;96.70
10123;DHT22;5101;49.038;8.710;2023-12-04T04:07:31;-0.90;96.60
10123;DHT22;5101;49.038;8.710;2023-12-04T04:09:57;-0.90;96.60
10123;DHT22;5101;49.038;8.710;2023-12-04T04:12:22;-0.90;96.50
10123;DHT22;5101;49.038;8.710;2023-12-04T04:14:48;-0.80;96.50
10123;DHT22;5101;49.038;8.710;2023-12-04T04:17:14;-0.90;96.40
10123;DHT22;5101;49.038;8.710;2023-12-04T04:19:40;-0.90;96.30
10123;DHT22;5101;49.038;8.710;2023-12-04T04:22:06;-0.90;96.30
10123;DHT22;5101;49.038;8.710;2023-12-04T04:24:31;-0.90;96.30
10123;DHT22;5101;49.038;8.710;2023-12-04T04:26:57;-0.90;96.30
10123;DHT22;5101;49.038;8.710;2023-12-04T04:29:22;-0.80;96.30
10123;DHT22;5101;49.038;8.710;2023-12-04T04:31:48;-0.90;96.30
10123;DHT22;5101;49.038;8.710;2023-12-04T04:34:13;-0.90;96.20
10123;DHT22;5101;49.038;8.710;2023-12-04T04:36:39;-0.90;96.20
10123;DHT22;5101;49.038;8.710;2023-12-04T04:39:04;-0.70;96.20
10123;DHT22;5101;49.038;8.710;2023-12-04T04:41:30;-0.90;96.10
10123;DHT22;5101;49.038;8.710;2023-12-04T04:43:55;-0.90;96.10
10123;DHT22;5101;49.038;8.710;2023-12-04T04:46:21;-0.80;96.10
10123;DHT22;5101;49.038;8.710;2023-12-04T04:48:46;-0.80;96.00
10123;DHT22;5101;49.038;8.710;2023-12-04T04:51:12;-0.80;96.00
10123;DHT22;5101;49.038;8.710;2023-12-04T04:53:38;-0.80;96.00
10123;DHT22;5101;49.038;8.710;2023-12-04T04:56:04;-0.80;95.90
10123;DHT22;5101;49.038;8.710;2023-12-04T04:58:30;-0.80;95.90
10123;DHT22;5101;49.038;8.710;2023-12-04T05:00:55;-0.80;95.90
10123;DHT22;5101;49.038;8.710;2023-12-04T05:03:21;-0.70;95.90
10123;DHT22;5101;49.038;8.710;2023-12-04T05:05:46;-0.70;95.90
10123;DHT22;5101;49.038;8.710;2023-12-04T05:08:12;-0.70;95.80
10123;DHT22;5101;49.038;8.710;2023-12-04T05:10:38;-0.70;95.80
10123;DHT22;5101;49.038;8.710;2023-12-04T05:13:04;-0.70;95.80
10123;DHT22;5101;49.038;8.710;2023-12-04T05:15:29;-0.60;95.80
10123;DHT22;5101;49.038;8.710;2023-12-04T05:17:55;-0.70;95.80
10123;DHT22;5101;49.038;8.710;2023-12-04T05:20:20;-0.60;95.80
10123;DHT22;5101;49.038;8.710;2023-12-04T05:22:46;-0.60;95.70
10123;DHT22;5101;49.038;8.710;2023-12-04T05:25:11;-0.60;95.70
10123;DHT22;5101;49.038;8.710;2023-12-04T05:27:37;-0.50;95.80
10123;DHT22;5101;49.038;8.710;2023-12-04T05:30:03;-0.50;95.80
10123;DHT22;5101;49.038;8.710;2023-12-04T05:32:28;-0.50;95.80
10123;DHT22;5101;49.038;8.710;2023-12-04T05:34:54;-0.50;95.80
10123;DHT22;5101;49.038;8.710;2023-12-04T05:37:19;-0.50;95.80
10123;DHT22;5101;49.038;8.710;2023-12-04T05:39:45;-0.50;95.90
10123;DHT22;5101;49.038;8.710;2023-12-04T05:42:10;-0.40;96.10
10123;DHT22;5101;49.038;8.710;2023-12-04T05:44:36;-0.50;96.00
10123;DHT22;5101;49.038;8.710;2023-12-04T05:47:01;-0.50;96.10
10123;DHT22;5101;49.038;8.710;2023-12-04T05:49:27;-0.50;96.00
10123;DHT22;5101;49.038;8.710;2023-12-04T05:51:54;-0.50;96.00
10123;DHT22;5101;49.038;8.710;2023-12-04T05:54:20;-0.50;96.10
10123;DHT22;5101;49.038;8.710;2023-12-04T05:56:45;-0.40;95.90
10123;DHT22;5101;49.038;8.710;2023-12-04T05:59:11;-0.40;95.90
10123;DHT22;5101;49.038;8.710;2023-12-04T06:01:36;-0.50;95.80
10123;DHT22;5101;49.038;8.710;2023-12-04T06:04:02;-0.50;95.80
10123;DHT22;5101;49.038;8.710;2023-12-04T06:06:27;-0.50;95.80
10123;DHT22;5101;49.038;8.710;2023-12-04T06:08:52;-0.50;95.90
10123;DHT22;5101;49.038;8.710;2023-12-04T06:11:18;-0.60;95.90
10123;DHT22;5101;49.038;8.710;2023-12-04T06:13:44;-0.60;96.00
10123;DHT22;5101;49.038;8.710;2023-12-04T06:16:09;-0.70;96.00
10123;DHT22;5101;49.038;8.710;2023-12-04T06:18:35;-0.70;96.00
10123;DHT22;5101;49.038;8.710;2023-12-04T06:21:01;-0.60;96.00
10123;DHT22;5101;49.038;8.710;2023-12-04T06:23:26;-0.60;96.00
10123;DHT22;5101;49.038;8.710;2023-12-04T06:25:52;-0.60;96.00
10123;DHT22;5101;49.038;8.710;2023-12-04T06:28:18;-0.60;96.10
10123;DHT22;5101;49.038;8.710;2023-12-04T06:30:44;-0.70;96.20
10123;DHT22;5101;49.038;8.710;2023-12-04T06:33:09;-0.60;96.20
10123;DHT22;5101;49.038;8.710;2023-12-04T06:35:35;-0.70;96.20
10123;DHT22;5101;49.038;8.710;2023-12-04T06:38:08;-0.70;96.30
10123;DHT22;5101;49.038;8.710;2023-12-04T06:40:34;-0.70;96.40
10123;DHT22;5101;49.038;8.710;2023-12-04T06:43:00;-0.60;96.40
10123;DHT22;5101;49.038;8.710;2023-12-04T06:45:26;-0.70;96.40
10123;DHT22;5101;49.038;8.710;2023-12-04T06:47:53;-0.60;96.40
10123;DHT22;5101;49.038;8.710;2023-12-04T06:50:19;-0.60;96.40
10123;DHT22;5101;49.038;8.710;2023-12-04T06:52:44;-0.70;96.40
10123;DHT22;5101;49.038;8.710;2023-12-04T06:55:11;-0.60;96.50
10123;DHT22;5101;49.038;8.710;2023-12-04T06:57:37;-0.60;96.60
10123;DHT22;5101;49.038;8.710;2023-12-04T07:00:03;-0.70;96.60
10123;DHT22;5101;49.038;8.710;2023-12-04T07:02:28;-0.70;96.70
10123;DHT22;5101;49.038;8.710;2023-12-04T07:04:54;-0.60;96.70
10123;DHT22;5101;49.038;8.710;2023-12-04T07:07:19;-0.60;96.70
10123;DHT22;5101;49.038;8.710;2023-12-04T07:09:45;-0.60;96.70
10123;DHT22;5101;49.038;8.710;2023-12-04T07:12:10;-0.60;96.70
10123;DHT22;5101;49.038;8.710;2023-12-04T07:14:36;-0.60;96.70
10123;DHT22;5101;49.038;8.710;2023-12-04T07:17:01;-0.60;96.80
10123;DHT22;5101;49.038;8.710;2023-12-04T07:19:27;-0.50;96.90
10123;DHT22;5101;49.038;8.710;2023-12-04T07:21:52;-0.50;96.90
10123;DHT22;5101;49.038;8.710;2023-12-04T07:24:18;-0.50;97.00
10123;DHT22;5101;49.038;8.710;2023-12-04T07:26:44;-0.50;97.00
10123;DHT22;5101;49.038;8.710;2023-12-04T07:29:09;-0.50;97.10
10123;DHT22;5101;49.038;8.710;2023-12-04T07:31:35;-0.50;97.20
10123;DHT22;5101;49.038;8.710;2023-12-04T07:34:01;-0.40;97.30
10123;DHT22;5101;49.038;8.710;2023-12-04T07:36:28;-0.50;97.40
10123;DHT22;5101;49.038;8.710;2023-12-04T07:38:53;-0.50;97.50
10123;DHT22;5101;49.038;8.710;2023-12-04T07:41:19;-0.50;97.50
10123;DHT22;5101;49.038;8.710;2023-12-04T07:43:45;-0.40;97.40
10123;DHT22;5101;49.038;8.710;2023-12-04T07:46:10;-0.40;97.40
10123;DHT22;5101;49.038;8.710;2023-12-04T07:48:37;-0.30;97.30
10123;DHT22;5101;49.038;8.710;2023-12-04T07:51:02;-0.30;97.20
10123;DHT22;5101;49.038;8.710;2023-12-04T07:53:28;-0.30;97.10
10123;DHT22;5101;49.038;8.710;2023-12-04T07:55:53;-0.20;97.00
10123;DHT22;5101;49.038;8.710;2023-12-04T07:58:19;-0.10;97.00
10123;DHT22;5101;49.038;8.710;2023-12-04T08:00:44;-0.10;96.90
10123;DHT22;5101;49.038;8.710;2023-12-04T08:03:10;-0.10;96.80
10123;DHT22;5101;49.038;8.710;2023-12-04T08:05:36;-0.10;96.70
10123;DHT22;5101;49.038;8.710;2023-12-04T08:08:02;-0.10;96.60
10123;DHT22;5101;49.038;8.710;2023-12-04T08:10:27;-0.10;96.50
10123;DHT22;5101;49.038;8.710;2023-12-04T08:12:53;-0.10;96.40
10123;DHT22;5101;49.038;8.710;2023-12-04T08:15:19;-0.10;96.30
10123;DHT22;5101;49.038;8.710;2023-12-04T08:17:44;-0.10;96.20
10123;DHT22;5101;49.038;8.710;2023-12-04T08:20:10;0.00;96.10
10123;DHT22;5101;49.038;8.710;2023-12-04T08:22:39;0.00;96.00
10123;DHT22;5101;49.038;8.710;2023-12-04T08:25:06;0.10;96.00
10123;DHT22;5101;49.038;8.710;2023-12-04T08:27:32;0.10;96.00
10123;DHT22;5101;49.038;8.710;2023-12-04T08:29:58;0.20;95.90
10123;DHT22;5101;49.038;8.710;2023-12-04T08:32:23;0.20;95.80
10123;DHT22;5101;49.038;8.710;2023-12-04T08:34:51;0.30;95.70
10123;DHT22;5101;49.038;8.710;2023-12-04T08:37:17;0.30;95.60
10123;DHT22;5101;49.038;8.710;2023-12-04T08:39:44;0.30;95.50
10123;DHT22;5101;49.038;8.710;2023-12-04T08:42:09;0.40;95.30
10123;DHT22;5101;49.038;8.710;2023-12-04T08:44:35;0.50;95.30
10123;DHT22;5101;49.038;8.710;2023-12-04T08:47:01;0.40;95.20
10123;DHT22;5101;49.038;8.710;2023-12-04T08:49:26;0.50;95.20
10123;DHT22;5101;49.038;8.710;2023-12-04T08:51:52;0.50;95.20
10123;DHT22;5101;49.038;8.710;2023-12-04T08:54:20;0.60;95.20
10123;DHT22;5101;49.038;8.710;2023-12-04T08:56:46;0.60;95.10
10123;DHT22;5101;49.038;8.710;2023-12-04T08:59:12;0.70;95.10
10123;DHT22;5101;49.038;8.710;2023-12-04T09:01:38;0.70;95.00
10123;DHT22;5101;49.038;8.710;2023-12-04T09:04:04;0.80;95.00
10123;DHT22;5101;49.038;8.710;2023-12-04T09:06:29;0.90;95.00
10123;DHT22;5101;49.038;8.710;2023-12-04T09:08:55;0.90;95.00
10123;DHT22;5101;49.038;8.710;2023-12-04T09:11:21;0.90;95.00
10123;DHT22;5101;49.038;8.710;2023-12-04T09:13:46;0.80;95.00
10123;DHT22;5101;49.038;8.710;2023-12-04T09:16:12;0.90;95.00
10123;DHT22;5101;49.038;8.710;2023-12-04T09:18:37;0.90;94.90
10123;DHT22;5101;49.038;8.710;2023-12-04T09:21:03;0.90;94.90
10123;DHT22;5101;49.038;8.710;2023-12-04T09:23:29;1.00;94.80
10123;DHT22;5101;49.038;8.710;2023-12-04T09:25:55;1.00;94.70
10123;DHT22;5101;49.038;8.710;2023-12-04T09:28:21;1.10;94.70
10123;DHT22;5101;49.038;8.710;2023-12-04T09:30:46;1.10;94.70
10123;DHT22;5101;49.038;8.710;2023-12-04T09:33:12;1.10;94.50
10123;DHT22;5101;49.038;8.710;2023-12-04T09:35:38;1.20;94.40
10123;DHT22;5101;49.038;8.710;2023-12-04T09:38:03;1.20;94.30
10123;DHT22;5101;49.038;8.710;2023-12-04T09:40:29;1.30;94.20
10123;DHT22;5101;49.038;8.710;2023-12-04T09:42:54;1.30;94.20
10123;DHT22;5101;49.038;8.710;2023-12-04T09:45:20;1.40;94.10
10123;DHT22;5101;49.038;8.710;2023-12-04T09:47:48;1.40;94.00
10123;DHT22;5101;49.038;8.710;2023-12-04T09:50:16;1.40;93.90
10123;DHT22;5101;49.038;8.710;2023-12-04T09:52:49;1.40;93.80
10123;DHT22;5101;49.038;8.710;2023-12-04T09:55:16;1.40;93.70
10123;DHT22;5101;49.038;8.710;2023-12-04T09:57:45;1.40;93.70
10123;DHT22;5101;49.038;8.710;2023-12-04T10:00:13;1.40;93.70
10123;DHT22;5101;49.038;8.710;2023-12-04T10:02:39;1.40;93.90
10123;DHT22;5101;49.038;8.710;2023-12-04T10:05:06;1.30;93.70
10123;DHT22;5101;49.038;8.710;2023-12-04T10:07:32;1.40;93.70
10123;DHT22;5101;49.038;8.710;2023-12-04T10:09:57;1.40;93.70
10123;DHT22;5101;49.038;8.710;2023-12-04T10:12:23;1.50;93.70
10123;DHT22;5101;49.038;8.710;2023-12-04T10:15:08;1.50;93.60
10123;DHT22;5101;49.038;8.710;2023-12-04T10:17:38;1.60;93.70
10123;DHT22;5101;49.038;8.710;2023-12-04T10:20:10;1.60;93.90
10123;DHT22;5101;49.038;8.710;2023-12-04T10:25:21;1.60;93.60
10123;DHT22;5101;49.038;8.710;2023-12-04T10:27:47;1.70;93.60
10123;DHT22;5101;49.038;8.710;2023-12-04T10:30:26;1.70;93.50
10123;DHT22;5101;49.038;8.710;2023-12-04T10:33:02;1.80;93.60
10123;DHT22;5101;49.038;8.710;2023-12-04T10:35:33;1.80;93.50
10123;DHT22;5101;49.038;8.710;2023-12-04T10:38:01;1.80;93.50
10123;DHT22;5101;49.038;8.710;2023-12-04T10:40:35;1.80;93.50
10123;DHT22;5101;49.038;8.710;2023-12-04T10:43:18;1.90;93.60
10123;DHT22;5101;49.038;8.710;2023-12-04T10:45:46;2.00;93.60
10123;DHT22;5101;49.038;8.710;2023-12-04T10:48:13;2.00;93.60
10123;DHT22;5101;49.038;8.710;2023-12-04T10:50:41;2.00;93.60
10123;DHT22;5101;49.038;8.710;2023-12-04T10:53:08;2.10;93.60
10123;DHT22;5101;49.038;8.710;2023-12-04T10:55:35;2.00;93.60
10123;DHT22;5101;49.038;8.710;2023-12-04T10:58:12;2.00;93.60
10123;DHT22;5101;49.038;8.710;2023-12-04T11:00:48;2.00;93.70
10123;DHT22;5101;49.038;8.710;2023-12-04T11:03:19;2.00;93.70
10123;DHT22;5101;49.038;8.710;2023-12-04T11:05:49;1.90;93.70
10123;DHT22;5101;49.038;8.710;2023-12-04T11:08:17;1.90;93.70
10123;DHT22;5101;49.038;8.710;2023-12-04T11:10:52;2.00;93.70
10123;DHT22;5101;49.038;8.710;2023-12-04T11:13:23;2.00;93.70
10123;DHT22;5101;49.038;8.710;2023-12-04T11:15:52;2.00;93.70
10123;DHT22;5101;49.038;8.710;2023-12-04T11:18:22;2.00;93.80
10123;DHT22;5101;49.038;8.710;2023-12-04T11:20:58;2.00;93.80
10123;DHT22;5101;49.038;8.710;2023-12-04T11:23:24;2.10;93.80
10123;DHT22;5101;49.038;8.710;2023-12-04T11:25:50;2.10;93.90
10123;DHT22;5101;49.038;8.710;2023-12-04T11:28:16;2.10;93.90
10123;DHT22;5101;49.038;8.710;2023-12-04T11:30:42;2.10;93.90
10123;DHT22;5101;49.038;8.710;2023-12-04T11:33:09;2.20;94.00
10123;DHT22;5101;49.038;8.710;2023-12-04T11:35:36;2.20;94.00
10123;DHT22;5101;49.038;8.710;2023-12-04T11:38:05;2.20;94.10
10123;DHT22;5101;49.038;8.710;2023-12-04T11:40:30;2.20;94.20
10123;DHT22;5101;49.038;8.710;2023-12-04T11:42:56;2.20;94.40
10123;DHT22;5101;49.038;8.710;2023-12-04T11:45:21;2.30;94.50
10123;DHT22;5101;49.038;8.710;2023-12-04T11:47:51;2.30;94.60
10123;DHT22;5101;49.038;8.710;2023-12-04T11:50:21;2.50;96.10
10123;DHT22;5101;49.038;8.710;2023-12-04T11:52:47;2.40;95.80
10123;DHT22;5101;49.038;8.710;2023-12-04T11:55:16;2.30;95.80
10123;DHT22;5101;49.038;8.710;2023-12-04T11:57:42;2.20;95.90
10123;DHT22;5101;49.038;8.710;2023-12-04T12:05:23;2.20;96.40
10123;DHT22;5101;49.038;8.710;2023-12-04T12:07:49;2.30;96.50
10123;DHT22;5101;49.038;8.710;2023-12-04T12:10:16;2.30;96.70
10123;DHT22;5101;49.038;8.710;2023-12-04T12:12:42;2.30;96.80
10123;DHT22;5101;49.038;8.710;2023-12-04T12:15:12;2.40;97.10
10123;DHT22;5101;49.038;8.710;2023-12-04T12:17:38;2.30;97.30
10123;DHT22;5101;49.038;8.710;2023-12-04T12:20:07;2.30;97.40
10123;DHT22;5101;49.038;8.710;2023-12-04T12:22:34;2.40;97.50
10123;DHT22;5101;49.038;8.710;2023-12-04T12:25:00;2.50;97.60
10123;DHT22;5101;49.038;8.710;2023-12-04T12:27:27;2.50;97.60
10123;DHT22;5101;49.038;8.710;2023-12-04T12:29:52;2.60;98.40
10123;DHT22;5101;49.038;8.710;2023-12-04T12:32:18;2.60;98.20
10123;DHT22;5101;49.038;8.710;2023-12-04T12:34:43;2.60;98.20
10123;DHT22;5101;49.038;8.710;2023-12-04T12:37:09;2.60;98.20
10123;DHT22;5101;49.038;8.710;2023-12-04T12:39:35;2.60;98.20
10123;DHT22;5101;49.038;8.710;2023-12-04T12:42:01;2.60;98.20
10123;DHT22;5101;49.038;8.710;2023-12-04T12:44:39;2.60;98.20
10123;DHT22;5101;49.038;8.710;2023-12-04T12:47:09;2.70;98.30
10123;DHT22;5101;49.038;8.710;2023-12-04T12:49:34;2.70;98.20
10123;DHT22;5101;49.038;8.710;2023-12-04T12:52:04;2.70;98.20
10123;DHT22;5101;49.038;8.710;2023-12-04T12:54:30;2.70;98.20
10123;DHT22;5101;49.038;8.710;2023-12-04T12:56:58;2.70;98.20
10123;DHT22;5101;49.038;8.710;2023-12-04T12:59:25;2.70;98.20
10123;DHT22;5101;49.038;8.710;2023-12-04T13:01:50;2.70;98.30
10123;DHT22;5101;49.038;8.710;2023-12-04T13:04:17;2.70;98.30
10123;DHT22;5101;49.038;8.710;2023-12-04T13:06:43;2.80;98.50
10123;DHT22;5101;49.038;8.710;2023-12-04T13:09:08;2.80;98.50
10123;DHT22;5101;49.038;8.710;2023-12-04T13:11:34;2.80;98.70
10123;DHT22;5101;49.038;8.710;2023-12-04T13:14:00;2.80;98.80
10123;DHT22;5101;49.038;8.710;2023-12-04T13:16:26;2.80;99.00
10123;DHT22;5101;49.038;8.710;2023-12-04T13:18:51;2.80;99.20
10123;DHT22;5101;49.038;8.710;2023-12-04T13:21:17;2.80;99.40
10123;DHT22;5101;49.038;8.710;2023-12-04T13:23:42;2.80;99.60
10123;DHT22;5101;49.038;8.710;2023-12-04T13:26:08;2.70;99.80
10123;DHT22;5101;49.038;8.710;2023-12-04T13:28:36;2.80;99.90
10123;DHT22;5101;49.038;8.710;2023-12-04T13:31:04;2.70;99.90
10123;DHT22;5101;49.038;8.710;2023-12-04T13:33:30;2.80;99.90
10123;DHT22;5101;49.038;8.710;2023-12-04T13:35:55;2.70;99.90
10123;DHT22;5101;49.038;8.710;2023-12-04T13:38:21;2.70;99.90
10123;DHT22;5101;49.038;8.710;2023-12-04T13:40:46;2.70;99.90
10123;DHT22;5101;49.038;8.710;2023-12-04T13:43:26;2.70;99.90
10123;DHT22;5101;49.038;8.710;2023-12-04T13:46:20;2.70;99.90
10123;DHT22;5101;49.038;8.710;2023-12-04T13:48:46;2.70;99.90
10123;DHT22;5101;49.038;8.710;2023-12-04T13:51:12;2.60;99.90
10123;DHT22;5101;49.038;8.710;2023-12-04T13:53:38;2.50;99.90
10123;DHT22;5101;49.038;8.710;2023-12-04T13:56:10;2.60;99.90
10123;DHT22;5101;49.038;8.710;2023-12-04T13:58:51;2.60;99.90
10123;DHT22;5101;49.038;8.710;2023-12-04T14:01:25;2.60;99.90
10123;DHT22;5101;49.038;8.710;2023-12-04T14:03:54;2.60;99.90
10123;DHT22;5101;49.038;8.710;2023-12-04T14:06:22;2.60;99.90
10123;DHT22;5101;49.038;8.710;2023-12-04T14:08:47;2.60;99.90
10123;DHT22;5101;49.038;8.710;2023-12-04T14:11:13;2.60;99.90
10123;DHT22;5101;49.038;8.710;2023-12-04T14:13:40;2.60;99.90
10123;DHT22;5101;49.038;8.710;2023-12-04T14:16:06;2.60;99.90
10123;DHT22;5101;49.038;8.710;2023-12-04T14:18:31;2.60;99.90
10123;DHT22;5101;49.038;8.710;2023-12-04T14:20:57;2.60;99.90
10123;DHT22;5101;49.038;8.710;2023-12-04T14:23:23;2.60;99.90
10123;DHT22;5101;49.038;8.710;2023-12-04T14:25:49;2.50;99.90
10123;DHT22;5101;49.038;8.710;2023-12-04T14:28:14;2.40;99.90
10123;DHT22;5101;49.038;8.710;2023-12-04T14:30:40;2.40;99.90
10123;DHT22;5101;49.038;8.710;2023-12-04T14:33:06;2.40;99.90
10123;DHT22;5101;49.038;8.710;2023-12-04T14:35:31;2.30;99.90
10123;DHT22;5101;49.038;8.710;2023-12-04T14:37:57;2.30;99.90
10123;DHT22;5101;49.038;8.710;2023-12-04T14:40:22;2.30;99.90
10123;DHT22;5101;49.038;8.710;2023-12-04T14:42:48;2.40;99.90
10123;DHT22;5101;49.038;8.710;2023-12-04T14:45:14;2.40;99.90
10123;DHT22;5101;49.038;8.710;2023-12-04T14:47:42;2.40;99.90
10123;DHT22;5101;49.038;8.710;2023-12-04T14:50:08;2.50;99.90
10123;DHT22;5101;49.038;8.710;2023-12-04T14:52:35;2.50;99.90
10123;DHT22;5101;49.038;8.710;2023-12-04T14:55:05;2.50;99.90
10123;DHT22;5101;49.038;8.710;2023-12-04T14:57:34;2.60;99.90
10123;DHT22;5101;49.038;8.710;2023-12-04T15:00:06;2.50;99.90
10123;DHT22;5101;49.038;8.710;2023-12-04T15:02:36;2.60;99.90
10123;DHT22;5101;49.038;8.710;2023-12-04T15:05:20;2.70;99.90
10123;DHT22;5101;49.038;8.710;2023-12-04T15:08:05;2.70;99.90
10123;DHT22;5101;49.038;8.710;2023-12-04T15:10:49;2.70;99.90
10123;DHT22;5101;49.038;8.710;2023-12-04T15:13:44;2.70;99.90
10123;DHT22;5101;49.038;8.710;2023-12-04T15:16:12;2.70;99.90
10123;DHT22;5101;49.038;8.710;2023-12-04T15:18:37;2.80;99.90
10123;DHT22;5101;49.038;8.710;2023-12-04T15:21:17;2.80;99.90
10123;DHT22;5101;49.038;8.710;2023-12-04T15:23:42;2.80;99.90
10123;DHT22;5101;49.038;8.710;2023-12-04T15:26:08;2.80;99.90
10123;DHT22;5101;49.038;8.710;2023-12-04T15:28:33;2.80;99.90
10123;DHT22;5101;49.038;8.710;2023-12-04T15:30:59;2.90;99.90
10123;DHT22;5101;49.038;8.710;2023-12-04T15:33:26;2.90;99.90
10123;DHT22;5101;49.038;8.710;2023-12-04T15:35:53;2.90;99.90
10123;DHT22;5101;49.038;8.710;2023-12-04T15:38:19;2.90;99.90
10123;DHT22;5101;49.038;8.710;2023-12-04T15:40:46;3.00;99.90
10123;DHT22;5101;49.038;8.710;2023-12-04T15:43:12;3.00;99.90
10123;DHT22;5101;49.038;8.710;2023-12-04T15:45:37;3.00;99.90
10123;DHT22;5101;49.038;8.710;2023-12-04T15:48:03;2.90;99.90
10123;DHT22;5101;49.038;8.710;2023-12-04T15:50:29;2.90;99.90
10123;DHT22;5101;49.038;8.710;2023-12-04T15:52:56;2.90;99.90
10123;DHT22;5101;49.038;8.710;2023-12-04T15:55:21;2.90;99.90
10123;DHT22;5101;49.038;8.710;2023-12-04T15:57:48;2.90;99.90